KLNN/LNN METAR and TAF weather

Enter ICAO airport designator
Station Type Date Time Source
KLNN METAR 2021/03/05 19:15 UTC NOAA

KLNN 051915Z AUTO 29011G17KT 10SM OVC038 M01/M09 A3022 RMK AO1 T10131094


Station Type Date Time Source
KLNN Decoded METAR 2021/03/05 19:15 UTC NOAA

Willoughby, OH, United States (KLNN) 41-41N 081-23W
Mar 05, 2021 - 02:15 PM EST / 2021.03.05 1915 UTC
Wind: from the WNW (290 degrees) at 13 MPH (11 KT) gusting to 20 MPH (17 KT):0
Visibility: 10 mile(s):0
Sky conditions: overcast
Temperature: 29.7 F (-1.3 C)
Windchill: 19 F (-7 C):1
Dew Point: 15.1 F (-9.4 C)
Relative Humidity: 54%
Pressure (altimeter): 30.22 in. Hg (1023 hPa)
ob: KLNN 051915Z AUTO 29011G17KT 10SM OVC038 M01/M09 A3022 RMK AO1 T10131094
cycle: 19

Station Type Date Time Source
KLNN TAF UTC NOAA

Error!

Example: see airport list